sensor_id;sensor_type;location;lat;lon;timestamp;temperature;humidity
21259;DHT22;10787;53.364;-1.480;2023-03-19T00:02:06;7.70;1.00
21259;DHT22;10787;53.364;-1.480;2023-03-19T00:04:50;7.70;1.00
21259;DHT22;10787;53.364;-1.480;2023-03-19T00:07:35;7.60;1.00
21259;DHT22;10787;53.364;-1.480;2023-03-19T00:10:19;7.50;1.00
21259;DHT22;10787;53.364;-1.480;2023-03-19T00:13:04;7.40;1.00
21259;DHT22;10787;53.364;-1.480;2023-03-19T00:15:48;7.40;1.00
21259;DHT22;10787;53.364;-1.480;2023-03-19T00:18:33;7.30;1.00
21259;DHT22;10787;53.364;-1.480;2023-03-19T00:21:17;7.20;1.00
21259;DHT22;10787;53.364;-1.480;2023-03-19T00:24:01;7.10;1.00
21259;DHT22;10787;53.364;-1.480;2023-03-19T00:26:46;7.10;1.00
21259;DHT22;10787;53.364;-1.480;2023-03-19T00:29:30;7.00;1.00
21259;DHT22;10787;53.364;-1.480;2023-03-19T00:32:15;7.00;1.00
21259;DHT22;10787;53.364;-1.480;2023-03-19T00:34:59;6.90;1.00
21259;DHT22;10787;53.364;-1.480;2023-03-19T00:37:44;6.90;1.00
21259;DHT22;10787;53.364;-1.480;2023-03-19T00:40:28;6.80;1.00
21259;DHT22;10787;53.364;-1.480;2023-03-19T00:43:12;6.80;1.00
21259;DHT22;10787;53.364;-1.480;2023-03-19T00:45:57;6.80;1.00
21259;DHT22;10787;53.364;-1.480;2023-03-19T00:48:41;6.80;1.00
21259;DHT22;10787;53.364;-1.480;2023-03-19T00:51:26;6.80;1.00
21259;DHT22;10787;53.364;-1.480;2023-03-19T00:54:11;6.70;1.00
21259;DHT22;10787;53.364;-1.480;2023-03-19T00:56:55;6.70;1.00
21259;DHT22;10787;53.364;-1.480;2023-03-19T00:59:40;6.70;1.00
21259;DHT22;10787;53.364;-1.480;2023-03-19T01:02:24;6.80;1.00
21259;DHT22;10787;53.364;-1.480;2023-03-19T01:05:09;6.80;1.00
21259;DHT22;10787;53.364;-1.480;2023-03-19T01:07:53;6.90;1.00
21259;DHT22;10787;53.364;-1.480;2023-03-19T01:10:38;7.00;1.00
21259;DHT22;10787;53.364;-1.480;2023-03-19T01:13:22;7.10;1.00
21259;DHT22;10787;53.364;-1.480;2023-03-19T01:16:07;7.20;1.00
21259;DHT22;10787;53.364;-1.480;2023-03-19T01:18:52;7.20;1.00
21259;DHT22;10787;53.364;-1.480;2023-03-19T01:21:37;7.30;1.00
21259;DHT22;10787;53.364;-1.480;2023-03-19T01:24:21;7.40;1.00
21259;DHT22;10787;53.364;-1.480;2023-03-19T01:27:06;7.40;1.00
21259;DHT22;10787;53.364;-1.480;2023-03-19T01:29:51;7.40;1.00
21259;DHT22;10787;53.364;-1.480;2023-03-19T01:32:35;7.30;1.00
21259;DHT22;10787;53.364;-1.480;2023-03-19T01:35:20;7.20;1.00
21259;DHT22;10787;53.364;-1.480;2023-03-19T01:38:05;7.10;1.00
21259;DHT22;10787;53.364;-1.480;2023-03-19T01:40:51;7.00;1.00
21259;DHT22;10787;53.364;-1.480;2023-03-19T01:43:35;6.90;1.00
21259;DHT22;10787;53.364;-1.480;2023-03-19T01:49:05;6.80;1.00
21259;DHT22;10787;53.364;-1.480;2023-03-19T01:51:51;6.80;1.00
21259;DHT22;10787;53.364;-1.480;2023-03-19T01:54:36;6.80;1.00
21259;DHT22;10787;53.364;-1.480;2023-03-19T01:57:22;6.80;1.00
21259;DHT22;10787;53.364;-1.480;2023-03-19T02:00:08;6.90;1.00
21259;DHT22;10787;53.364;-1.480;2023-03-19T02:02:54;6.90;1.00
21259;DHT22;10787;53.364;-1.480;2023-03-19T02:05:43;6.90;1.00
21259;DHT22;10787;53.364;-1.480;2023-03-19T02:08:31;7.00;1.00
21259;DHT22;10787;53.364;-1.480;2023-03-19T02:11:17;7.00;1.00
21259;DHT22;10787;53.364;-1.480;2023-03-19T02:14:02;7.00;1.00
21259;DHT22;10787;53.364;-1.480;2023-03-19T02:16:47;7.00;1.00
21259;DHT22;10787;53.364;-1.480;2023-03-19T02:19:40;7.10;1.00
21259;DHT22;10787;53.364;-1.480;2023-03-19T02:22:28;7.10;1.00
21259;DHT22;10787;53.364;-1.480;2023-03-19T02:25:20;7.20;1.00
21259;DHT22;10787;53.364;-1.480;2023-03-19T02:28:05;7.20;1.00
21259;DHT22;10787;53.364;-1.480;2023-03-19T02:30:51;7.20;1.00
21259;DHT22;10787;53.364;-1.480;2023-03-19T02:33:36;7.10;1.00
21259;DHT22;10787;53.364;-1.480;2023-03-19T02:36:20;7.10;1.00
21259;DHT22;10787;53.364;-1.480;2023-03-19T02:39:09;7.10;1.00
21259;DHT22;10787;53.364;-1.480;2023-03-19T02:41:57;7.00;1.00
21259;DHT22;10787;53.364;-1.480;2023-03-19T02:44:42;6.90;1.00
21259;DHT22;10787;53.364;-1.480;2023-03-19T02:47:27;6.80;1.00
21259;DHT22;10787;53.364;-1.480;2023-03-19T02:50:11;6.70;1.00
21259;DHT22;10787;53.364;-1.480;2023-03-19T02:52:56;6.70;1.00
21259;DHT22;10787;53.364;-1.480;2023-03-19T02:55:40;6.60;1.00
21259;DHT22;10787;53.364;-1.480;2023-03-19T02:58:25;6.50;1.00
21259;DHT22;10787;53.364;-1.480;2023-03-19T03:01:09;6.50;1.00
21259;DHT22;10787;53.364;-1.480;2023-03-19T03:03:54;6.50;1.00
21259;DHT22;10787;53.364;-1.480;2023-03-19T03:06:38;6.50;1.00
21259;DHT22;10787;53.364;-1.480;2023-03-19T03:09:22;6.40;1.00
21259;DHT22;10787;53.364;-1.480;2023-03-19T03:12:07;6.40;1.00
21259;DHT22;10787;53.364;-1.480;2023-03-19T03:14:51;6.40;1.00
21259;DHT22;10787;53.364;-1.480;2023-03-19T03:17:37;6.40;1.00
21259;DHT22;10787;53.364;-1.480;2023-03-19T03:20:22;6.50;1.00
21259;DHT22;10787;53.364;-1.480;2023-03-19T03:23:06;6.60;1.00
21259;DHT22;10787;53.364;-1.480;2023-03-19T03:25:51;6.70;1.00
21259;DHT22;10787;53.364;-1.480;2023-03-19T03:28:35;6.60;1.00
21259;DHT22;10787;53.364;-1.480;2023-03-19T03:31:19;6.60;1.00
21259;DHT22;10787;53.364;-1.480;2023-03-19T03:34:04;6.50;1.00
21259;DHT22;10787;53.364;-1.480;2023-03-19T03:36:48;6.40;1.00
21259;DHT22;10787;53.364;-1.480;2023-03-19T03:39:32;6.40;1.00
21259;DHT22;10787;53.364;-1.480;2023-03-19T03:42:16;6.30;1.00
21259;DHT22;10787;53.364;-1.480;2023-03-19T03:45:01;6.30;1.00
21259;DHT22;10787;53.364;-1.480;2023-03-19T03:47:46;6.30;1.00
21259;DHT22;10787;53.364;-1.480;2023-03-19T03:50:30;6.20;1.00
21259;DHT22;10787;53.364;-1.480;2023-03-19T03:53:15;6.20;1.00
21259;DHT22;10787;53.364;-1.480;2023-03-19T03:55:59;6.10;1.00
21259;DHT22;10787;53.364;-1.480;2023-03-19T03:58:44;6.10;1.00
21259;DHT22;10787;53.364;-1.480;2023-03-19T04:01:29;6.10;1.00
21259;DHT22;10787;53.364;-1.480;2023-03-19T04:04:13;6.00;1.00
21259;DHT22;10787;53.364;-1.480;2023-03-19T04:06:58;6.00;1.00
21259;DHT22;10787;53.364;-1.480;2023-03-19T04:09:42;6.00;1.00
21259;DHT22;10787;53.364;-1.480;2023-03-19T04:12:26;6.00;1.00
21259;DHT22;10787;53.364;-1.480;2023-03-19T04:15:11;6.00;1.00
21259;DHT22;10787;53.364;-1.480;2023-03-19T04:17:56;6.00;1.00
21259;DHT22;10787;53.364;-1.480;2023-03-19T04:20:40;6.00;1.00
21259;DHT22;10787;53.364;-1.480;2023-03-19T04:23:25;6.00;1.00
21259;DHT22;10787;53.364;-1.480;2023-03-19T04:26:09;5.90;1.00
21259;DHT22;10787;53.364;-1.480;2023-03-19T04:28:56;5.90;1.00
21259;DHT22;10787;53.364;-1.480;2023-03-19T04:31:40;5.90;1.00
21259;DHT22;10787;53.364;-1.480;2023-03-19T04:34:25;6.00;1.00
21259;DHT22;10787;53.364;-1.480;2023-03-19T04:37:09;6.00;1.00
21259;DHT22;10787;53.364;-1.480;2023-03-19T04:39:53;5.90;1.00
21259;DHT22;10787;53.364;-1.480;2023-03-19T04:42:38;6.00;1.00
21259;DHT22;10787;53.364;-1.480;2023-03-19T04:45:22;6.00;1.00
21259;DHT22;10787;53.364;-1.480;2023-03-19T04:48:06;6.00;1.00
21259;DHT22;10787;53.364;-1.480;2023-03-19T04:50:50;5.90;1.00
21259;DHT22;10787;53.364;-1.480;2023-03-19T04:53:36;5.90;1.00
21259;DHT22;10787;53.364;-1.480;2023-03-19T04:56:21;5.90;1.00
21259;DHT22;10787;53.364;-1.480;2023-03-19T04:59:05;5.90;1.00
21259;DHT22;10787;53.364;-1.480;2023-03-19T05:01:49;5.90;1.00
21259;DHT22;10787;53.364;-1.480;2023-03-19T05:04:34;5.90;1.00
21259;DHT22;10787;53.364;-1.480;2023-03-19T05:07:18;5.90;1.00
21259;DHT22;10787;53.364;-1.480;2023-03-19T05:10:04;5.80;1.00
21259;DHT22;10787;53.364;-1.480;2023-03-19T05:12:48;5.80;1.00
21259;DHT22;10787;53.364;-1.480;2023-03-19T05:15:33;5.80;1.00
21259;DHT22;10787;53.364;-1.480;2023-03-19T05:18:17;5.80;1.00
21259;DHT22;10787;53.364;-1.480;2023-03-19T05:21:01;5.90;1.00
21259;DHT22;10787;53.364;-1.480;2023-03-19T05:23:47;5.90;1.00
21259;DHT22;10787;53.364;-1.480;2023-03-19T05:26:35;5.90;1.00
21259;DHT22;10787;53.364;-1.480;2023-03-19T05:29:20;5.90;1.00
21259;DHT22;10787;53.364;-1.480;2023-03-19T05:32:05;5.90;1.00
21259;DHT22;10787;53.364;-1.480;2023-03-19T05:34:49;5.80;1.00
21259;DHT22;10787;53.364;-1.480;2023-03-19T05:37:34;5.80;1.00
21259;DHT22;10787;53.364;-1.480;2023-03-19T05:40:18;5.70;1.00
21259;DHT22;10787;53.364;-1.480;2023-03-19T05:43:03;5.70;1.00
21259;DHT22;10787;53.364;-1.480;2023-03-19T05:45:51;5.80;1.00
21259;DHT22;10787;53.364;-1.480;2023-03-19T05:48:35;5.90;1.00
21259;DHT22;10787;53.364;-1.480;2023-03-19T05:51:21;5.90;1.00
21259;DHT22;10787;53.364;-1.480;2023-03-19T05:54:05;5.90;1.00
21259;DHT22;10787;53.364;-1.480;2023-03-19T05:56:50;5.90;1.00
21259;DHT22;10787;53.364;-1.480;2023-03-19T05:59:34;5.90;1.00
21259;DHT22;10787;53.364;-1.480;2023-03-19T06:02:19;5.90;1.00
21259;DHT22;10787;53.364;-1.480;2023-03-19T06:05:04;5.80;1.00
21259;DHT22;10787;53.364;-1.480;2023-03-19T06:07:49;5.90;1.00
21259;DHT22;10787;53.364;-1.480;2023-03-19T06:10:34;5.90;1.00
21259;DHT22;10787;53.364;-1.480;2023-03-19T06:13:18;5.90;1.00
21259;DHT22;10787;53.364;-1.480;2023-03-19T06:16:03;5.90;1.00
21259;DHT22;10787;53.364;-1.480;2023-03-19T06:18:47;5.90;1.00
21259;DHT22;10787;53.364;-1.480;2023-03-19T06:21:31;5.90;1.00
21259;DHT22;10787;53.364;-1.480;2023-03-19T06:24:15;5.90;1.00
21259;DHT22;10787;53.364;-1.480;2023-03-19T06:27:00;5.90;1.00
21259;DHT22;10787;53.364;-1.480;2023-03-19T06:29:44;5.90;1.00
21259;DHT22;10787;53.364;-1.480;2023-03-19T06:32:29;5.90;1.00
21259;DHT22;10787;53.364;-1.480;2023-03-19T06:35:14;5.90;1.00
21259;DHT22;10787;53.364;-1.480;2023-03-19T06:37:59;5.90;1.00
21259;DHT22;10787;53.364;-1.480;2023-03-19T06:40:43;5.90;1.00
21259;DHT22;10787;53.364;-1.480;2023-03-19T06:43:28;6.00;1.00
21259;DHT22;10787;53.364;-1.480;2023-03-19T06:46:12;6.00;1.00
21259;DHT22;10787;53.364;-1.480;2023-03-19T06:48:56;6.00;1.00
21259;DHT22;10787;53.364;-1.480;2023-03-19T06:51:41;6.10;1.00
21259;DHT22;10787;53.364;-1.480;2023-03-19T06:54:25;6.10;1.00
21259;DHT22;10787;53.364;-1.480;2023-03-19T06:57:10;6.10;1.00
21259;DHT22;10787;53.364;-1.480;2023-03-19T06:59:54;6.20;1.00
21259;DHT22;10787;53.364;-1.480;2023-03-19T07:02:39;6.30;1.00
21259;DHT22;10787;53.364;-1.480;2023-03-19T07:05:24;6.40;1.00
21259;DHT22;10787;53.364;-1.480;2023-03-19T07:08:08;6.40;1.00
21259;DHT22;10787;53.364;-1.480;2023-03-19T07:10:55;6.50;1.00
21259;DHT22;10787;53.364;-1.480;2023-03-19T07:13:40;6.60;1.00
21259;DHT22;10787;53.364;-1.480;2023-03-19T07:16:25;6.60;1.00
21259;DHT22;10787;53.364;-1.480;2023-03-19T07:19:09;6.70;1.00
21259;DHT22;10787;53.364;-1.480;2023-03-19T07:21:54;6.80;1.00
21259;DHT22;10787;53.364;-1.480;2023-03-19T07:24:38;6.80;1.00
21259;DHT22;10787;53.364;-1.480;2023-03-19T07:27:23;6.90;1.00
21259;DHT22;10787;53.364;-1.480;2023-03-19T07:30:07;6.90;1.00
21259;DHT22;10787;53.364;-1.480;2023-03-19T07:32:54;7.00;1.00
21259;DHT22;10787;53.364;-1.480;2023-03-19T07:35:38;7.10;1.00
21259;DHT22;10787;53.364;-1.480;2023-03-19T07:38:23;7.20;1.00
21259;DHT22;10787;53.364;-1.480;2023-03-19T07:41:07;7.20;1.00
21259;DHT22;10787;53.364;-1.480;2023-03-19T07:43:51;7.40;1.00
21259;DHT22;10787;53.364;-1.480;2023-03-19T07:46:35;7.40;1.00
21259;DHT22;10787;53.364;-1.480;2023-03-19T07:49:21;7.50;1.00
21259;DHT22;10787;53.364;-1.480;2023-03-19T07:52:05;7.60;1.00
21259;DHT22;10787;53.364;-1.480;2023-03-19T07:54:50;7.60;1.00
21259;DHT22;10787;53.364;-1.480;2023-03-19T07:57:35;7.70;1.00
21259;DHT22;10787;53.364;-1.480;2023-03-19T08:00:19;7.80;1.00
21259;DHT22;10787;53.364;-1.480;2023-03-19T08:03:04;7.80;1.00
21259;DHT22;10787;53.364;-1.480;2023-03-19T08:05:48;7.90;1.00
21259;DHT22;10787;53.364;-1.480;2023-03-19T08:08:34;8.00;1.00
21259;DHT22;10787;53.364;-1.480;2023-03-19T08:11:20;8.10;1.00
21259;DHT22;10787;53.364;-1.480;2023-03-19T08:14:05;8.20;1.00
21259;DHT22;10787;53.364;-1.480;2023-03-19T08:16:50;8.30;1.00
21259;DHT22;10787;53.364;-1.480;2023-03-19T08:19:35;8.40;1.00
21259;DHT22;10787;53.364;-1.480;2023-03-19T08:22:20;8.50;1.00
21259;DHT22;10787;53.364;-1.480;2023-03-19T08:25:05;8.60;1.00
21259;DHT22;10787;53.364;-1.480;2023-03-19T08:27:50;8.70;1.00
21259;DHT22;10787;53.364;-1.480;2023-03-19T08:30:36;8.80;1.00
21259;DHT22;10787;53.364;-1.480;2023-03-19T08:33:20;8.90;1.00
21259;DHT22;10787;53.364;-1.480;2023-03-19T08:36:06;9.00;1.00
21259;DHT22;10787;53.364;-1.480;2023-03-19T08:38:51;9.10;1.00
21259;DHT22;10787;53.364;-1.480;2023-03-19T08:41:37;9.10;1.00
21259;DHT22;10787;53.364;-1.480;2023-03-19T08:44:21;9.10;1.00
21259;DHT22;10787;53.364;-1.480;2023-03-19T08:47:05;9.20;1.00
21259;DHT22;10787;53.364;-1.480;2023-03-19T08:49:50;9.10;1.00
21259;DHT22;10787;53.364;-1.480;2023-03-19T08:52:35;9.20;1.00
21259;DHT22;10787;53.364;-1.480;2023-03-19T08:55:19;9.20;1.00
21259;DHT22;10787;53.364;-1.480;2023-03-19T08:58:04;9.30;1.00
21259;DHT22;10787;53.364;-1.480;2023-03-19T09:00:48;9.30;1.00
21259;DHT22;10787;53.364;-1.480;2023-03-19T09:03:33;9.30;1.00
21259;DHT22;10787;53.364;-1.480;2023-03-19T09:06:18;9.30;1.00
21259;DHT22;10787;53.364;-1.480;2023-03-19T09:09:02;9.30;1.00
21259;DHT22;10787;53.364;-1.480;2023-03-19T09:11:46;9.30;1.00
21259;DHT22;10787;53.364;-1.480;2023-03-19T09:14:31;9.30;1.00
21259;DHT22;10787;53.364;-1.480;2023-03-19T09:17:16;9.40;1.00
21259;DHT22;10787;53.364;-1.480;2023-03-19T09:20:01;9.50;1.00
21259;DHT22;10787;53.364;-1.480;2023-03-19T09:22:47;9.60;1.00
21259;DHT22;10787;53.364;-1.480;2023-03-19T09:25:31;9.70;1.00
21259;DHT22;10787;53.364;-1.480;2023-03-19T09:28:15;9.80;1.00
21259;DHT22;10787;53.364;-1.480;2023-03-19T09:30:59;9.70;1.00
21259;DHT22;10787;53.364;-1.480;2023-03-19T09:33:50;9.80;1.00
21259;DHT22;10787;53.364;-1.480;2023-03-19T09:36:35;9.80;1.00
21259;DHT22;10787;53.364;-1.480;2023-03-19T09:39:20;9.90;1.00
21259;DHT22;10787;53.364;-1.480;2023-03-19T09:45:19;10.10;1.00
21259;DHT22;10787;53.364;-1.480;2023-03-19T09:48:10;10.20;1.00
21259;DHT22;10787;53.364;-1.480;2023-03-19T09:50:58;10.30;1.00
21259;DHT22;10787;53.364;-1.480;2023-03-19T09:53:52;10.40;1.00
21259;DHT22;10787;53.364;-1.480;2023-03-19T09:56:39;10.50;1.00
21259;DHT22;10787;53.364;-1.480;2023-03-19T09:59:26;10.50;1.00
21259;DHT22;10787;53.364;-1.480;2023-03-19T10:11:36;10.70;1.00
21259;DHT22;10787;53.364;-1.480;2023-03-19T10:20:52;10.80;1.00
21259;DHT22;10787;53.364;-1.480;2023-03-19T10:23:43;11.00;1.00
21259;DHT22;10787;53.364;-1.480;2023-03-19T10:26:31;11.10;1.00
21259;DHT22;10787;53.364;-1.480;2023-03-19T10:29:26;11.30;1.00
21259;DHT22;10787;53.364;-1.480;2023-03-19T10:32:14;11.40;1.00
21259;DHT22;10787;53.364;-1.480;2023-03-19T10:35:17;11.30;1.00
21259;DHT22;10787;53.364;-1.480;2023-03-19T10:38:20;11.20;1.00
21259;DHT22;10787;53.364;-1.480;2023-03-19T10:41:26;11.10;1.00
21259;DHT22;10787;53.364;-1.480;2023-03-19T10:44:41;11.10;1.00
21259;DHT22;10787;53.364;-1.480;2023-03-19T10:47:26;11.10;1.00
21259;DHT22;10787;53.364;-1.480;2023-03-19T10:50:16;11.10;1.00
21259;DHT22;10787;53.364;-1.480;2023-03-19T10:56:21;11.10;1.00
21259;DHT22;10787;53.364;-1.480;2023-03-19T10:59:39;11.30;1.00
21259;DHT22;10787;53.364;-1.480;2023-03-19T11:02:24;11.50;1.00
21259;DHT22;10787;53.364;-1.480;2023-03-19T11:08:06;11.90;1.00
21259;DHT22;10787;53.364;-1.480;2023-03-19T11:10:57;12.20;1.00
21259;DHT22;10787;53.364;-1.480;2023-03-19T11:13:45;12.40;1.00
21259;DHT22;10787;53.364;-1.480;2023-03-19T11:16:29;12.70;1.00
21259;DHT22;10787;53.364;-1.480;2023-03-19T11:19:48;12.90;1.00
21259;DHT22;10787;53.364;-1.480;2023-03-19T11:22:35;13.10;1.00
21259;DHT22;10787;53.364;-1.480;2023-03-19T11:25:40;12.90;1.00
21259;DHT22;10787;53.364;-1.480;2023-03-19T11:28:26;13.00;1.00
21259;DHT22;10787;53.364;-1.480;2023-03-19T11:40:13;12.60;1.00
21259;DHT22;10787;53.364;-1.480;2023-03-19T11:52:34;13.50;1.00
21259;DHT22;10787;53.364;-1.480;2023-03-19T11:55:49;13.50;1.00
21259;DHT22;10787;53.364;-1.480;2023-03-19T12:11:06;13.70;1.00
21259;DHT22;10787;53.364;-1.480;2023-03-19T12:13:59;13.80;1.00
21259;DHT22;10787;53.364;-1.480;2023-03-19T12:17:02;14.40;1.00
21259;DHT22;10787;53.364;-1.480;2023-03-19T12:22:57;14.30;1.00
21259;DHT22;10787;53.364;-1.480;2023-03-19T12:35:08;15.00;1.00
21259;DHT22;10787;53.364;-1.480;2023-03-19T12:37:58;14.80;1.00
21259;DHT22;10787;53.364;-1.480;2023-03-19T12:50:04;13.90;1.00
21259;DHT22;10787;53.364;-1.480;2023-03-19T12:52:54;13.70;1.00
21259;DHT22;10787;53.364;-1.480;2023-03-19T12:55:44;13.70;1.00
21259;DHT22;10787;53.364;-1.480;2023-03-19T12:58:50;13.40;1.00
21259;DHT22;10787;53.364;-1.480;2023-03-19T13:01:40;13.40;1.00
21259;DHT22;10787;53.364;-1.480;2023-03-19T13:04:35;13.30;1.00
21259;DHT22;10787;53.364;-1.480;2023-03-19T13:10:35;13.10;1.00
21259;DHT22;10787;53.364;-1.480;2023-03-19T13:16:42;13.90;1.00
21259;DHT22;10787;53.364;-1.480;2023-03-19T13:19:47;15.50;1.00
21259;DHT22;10787;53.364;-1.480;2023-03-19T13:22:37;17.00;1.00
21259;DHT22;10787;53.364;-1.480;2023-03-19T13:25:26;17.90;1.00
21259;DHT22;10787;53.364;-1.480;2023-03-19T13:28:28;18.60;1.00
21259;DHT22;10787;53.364;-1.480;2023-03-19T13:31:20;18.70;1.00
21259;DHT22;10787;53.364;-1.480;2023-03-19T13:34:20;19.40;1.00
21259;DHT22;10787;53.364;-1.480;2023-03-19T13:39:55;18.70;1.00
21259;DHT22;10787;53.364;-1.480;2023-03-19T13:42:39;18.30;1.00
21259;DHT22;10787;53.364;-1.480;2023-03-19T13:45:37;18.30;1.00
21259;DHT22;10787;53.364;-1.480;2023-03-19T13:48:33;18.00;1.00
21259;DHT22;10787;53.364;-1.480;2023-03-19T13:59:48;17.90;1.00
21259;DHT22;10787;53.364;-1.480;2023-03-19T14:05:18;18.00;1.00
21259;DHT22;10787;53.364;-1.480;2023-03-19T14:08:14;18.90;1.00
21259;DHT22;10787;53.364;-1.480;2023-03-19T14:11:01;19.00;1.00
21259;DHT22;10787;53.364;-1.480;2023-03-19T14:13:50;19.70;1.00
21259;DHT22;10787;53.364;-1.480;2023-03-19T14:16:39;20.30;1.00
21259;DHT22;10787;53.364;-1.480;2023-03-19T14:19:25;18.90;1.00
21259;DHT22;10787;53.364;-1.480;2023-03-19T14:22:20;19.60;1.00
21259;DHT22;10787;53.364;-1.480;2023-03-19T14:25:17;19.90;1.00
21259;DHT22;10787;53.364;-1.480;2023-03-19T14:28:08;19.70;1.00
21259;DHT22;10787;53.364;-1.480;2023-03-19T14:30:55;19.80;1.00
21259;DHT22;10787;53.364;-1.480;2023-03-19T14:33:49;19.70;1.00
21259;DHT22;10787;53.364;-1.480;2023-03-19T14:36:37;19.90;1.00
21259;DHT22;10787;53.364;-1.480;2023-03-19T14:39:29;20.70;1.00
21259;DHT22;10787;53.364;-1.480;2023-03-19T14:42:31;22.20;1.00
21259;DHT22;10787;53.364;-1.480;2023-03-19T14:56:49;20.40;1.00
21259;DHT22;10787;53.364;-1.480;2023-03-19T14:59:38;20.80;1.00
21259;DHT22;10787;53.364;-1.480;2023-03-19T15:02:34;20.90;1.00
21259;DHT22;10787;53.364;-1.480;2023-03-19T15:05:30;20.30;1.00
21259;DHT22;10787;53.364;-1.480;2023-03-19T15:08:19;20.80;1.00
21259;DHT22;10787;53.364;-1.480;2023-03-19T15:17:24;21.10;1.00
21259;DHT22;10787;53.364;-1.480;2023-03-19T15:20:16;19.30;1.00
21259;DHT22;10787;53.364;-1.480;2023-03-19T15:23:04;18.10;1.00
21259;DHT22;10787;53.364;-1.480;2023-03-19T15:25:52;17.10;1.00
21259;DHT22;10787;53.364;-1.480;2023-03-19T15:28:48;16.20;1.00
21259;DHT22;10787;53.364;-1.480;2023-03-19T15:31:41;15.50;1.00
21259;DHT22;10787;53.364;-1.480;2023-03-19T15:34:42;14.70;1.00
21259;DHT22;10787;53.364;-1.480;2023-03-19T15:37:30;14.50;1.00
21259;DHT22;10787;53.364;-1.480;2023-03-19T15:40:17;14.30;1.00
21259;DHT22;10787;53.364;-1.480;2023-03-19T15:43:03;13.80;1.00
21259;DHT22;10787;53.364;-1.480;2023-03-19T15:45:49;13.50;1.00
21259;DHT22;10787;53.364;-1.480;2023-03-19T15:48:42;13.30;1.00
21259;DHT22;10787;53.364;-1.480;2023-03-19T15:51:30;13.20;1.00
21259;DHT22;10787;53.364;-1.480;2023-03-19T15:54:15;13.10;1.00
21259;DHT22;10787;53.364;-1.480;2023-03-19T15:56:59;13.10;1.00
21259;DHT22;10787;53.364;-1.480;2023-03-19T15:59:44;13.10;1.00
21259;DHT22;10787;53.364;-1.480;2023-03-19T16:02:31;13.20;1.00
21259;DHT22;10787;53.364;-1.480;2023-03-19T16:05:24;13.30;1.00
21259;DHT22;10787;53.364;-1.480;2023-03-19T16:08:34;13.10;1.00
21259;DHT22;10787;53.364;-1.480;2023-03-19T16:11:40;13.00;1.00
21259;DHT22;10787;53.364;-1.480;2023-03-19T16:17:16;12.50;1.00
21259;DHT22;10787;53.364;-1.480;2023-03-19T16:20:02;12.40;1.00
21259;DHT22;10787;53.364;-1.480;2023-03-19T16:22:53;12.30;1.00
21259;DHT22;10787;53.364;-1.480;2023-03-19T16:25:38;12.00;1.00
21259;DHT22;10787;53.364;-1.480;2023-03-19T16:28:23;11.80;1.00
21259;DHT22;10787;53.364;-1.480;2023-03-19T16:31:41;11.50;1.00
21259;DHT22;10787;53.364;-1.480;2023-03-19T16:34:41;11.50;1.00
21259;DHT22;10787;53.364;-1.480;2023-03-19T16:37:46;11.50;1.00
21259;DHT22;10787;53.364;-1.480;2023-03-19T16:40:47;11.40;1.00
21259;DHT22;10787;53.364;-1.480;2023-03-19T16:43:32;11.30;1.00
21259;DHT22;10787;53.364;-1.480;2023-03-19T16:46:20;11.10;1.00
21259;DHT22;10787;53.364;-1.480;2023-03-19T16:49:04;11.00;1.00
21259;DHT22;10787;53.364;-1.480;2023-03-19T16:51:49;11.00;1.00
21259;DHT22;10787;53.364;-1.480;2023-03-19T16:54:34;11.00;1.00
21259;DHT22;10787;53.364;-1.480;2023-03-19T16:57:18;11.00;1.00
21259;DHT22;10787;53.364;-1.480;2023-03-19T17:00:03;11.00;1.00
21259;DHT22;10787;53.364;-1.480;2023-03-19T17:02:48;11.00;1.00
21259;DHT22;10787;53.364;-1.480;2023-03-19T17:05:32;11.10;1.00
21259;DHT22;10787;53.364;-1.480;2023-03-19T17:08:17;10.90;1.00
21259;DHT22;10787;53.364;-1.480;2023-03-19T17:11:01;10.80;1.00
21259;DHT22;10787;53.364;-1.480;2023-03-19T17:13:46;10.80;1.00
21259;DHT22;10787;53.364;-1.480;2023-03-19T17:16:30;10.80;1.00
21259;DHT22;10787;53.364;-1.480;2023-03-19T17:19:21;10.70;1.00
21259;DHT22;10787;53.364;-1.480;2023-03-19T17:22:07;10.50;1.00
21259;DHT22;10787;53.364;-1.480;2023-03-19T17:24:52;10.40;1.00
21259;DHT22;10787;53.364;-1.480;2023-03-19T17:27:37;10.40;1.00
21259;DHT22;10787;53.364;-1.480;2023-03-19T17:30:21;10.40;1.00
21259;DHT22;10787;53.364;-1.480;2023-03-19T17:33:05;10.40;1.00
21259;DHT22;10787;53.364;-1.480;2023-03-19T17:35:51;10.50;1.00
21259;DHT22;10787;53.364;-1.480;2023-03-19T17:38:36;10.40;1.00
21259;DHT22;10787;53.364;-1.480;2023-03-19T17:41:20;10.40;1.00
21259;DHT22;10787;53.364;-1.480;2023-03-19T17:44:05;10.40;1.00
21259;DHT22;10787;53.364;-1.480;2023-03-19T17:46:52;10.40;1.00
21259;DHT22;10787;53.364;-1.480;2023-03-19T17:49:36;10.40;1.00
21259;DHT22;10787;53.364;-1.480;2023-03-19T17:52:22;10.30;1.00
21259;DHT22;10787;53.364;-1.480;2023-03-19T17:55:27;10.30;1.00
21259;DHT22;10787;53.364;-1.480;2023-03-19T17:58:17;10.20;1.00
21259;DHT22;10787;53.364;-1.480;2023-03-19T18:01:02;10.10;1.00
21259;DHT22;10787;53.364;-1.480;2023-03-19T18:03:48;10.00;1.00
21259;DHT22;10787;53.364;-1.480;2023-03-19T18:06:35;9.90;1.00
21259;DHT22;10787;53.364;-1.480;2023-03-19T18:09:26;9.80;1.00
21259;DHT22;10787;53.364;-1.480;2023-03-19T18:12:13;9.80;1.00
21259;DHT22;10787;53.364;-1.480;2023-03-19T18:14:58;9.70;1.00
21259;DHT22;10787;53.364;-1.480;2023-03-19T18:17:49;9.70;1.00
21259;DHT22;10787;53.364;-1.480;2023-03-19T18:20:37;9.70;1.00
21259;DHT22;10787;53.364;-1.480;2023-03-19T18:23:21;9.60;1.00
21259;DHT22;10787;53.364;-1.480;2023-03-19T18:26:07;9.60;1.00
21259;DHT22;10787;53.364;-1.480;2023-03-19T18:28:52;9.50;1.00
21259;DHT22;10787;53.364;-1.480;2023-03-19T18:31:37;9.50;1.00
21259;DHT22;10787;53.364;-1.480;2023-03-19T18:34:21;9.50;1.00
21259;DHT22;10787;53.364;-1.480;2023-03-19T18:37:05;9.30;1.00
21259;DHT22;10787;53.364;-1.480;2023-03-19T18:39:50;9.30;1.00
21259;DHT22;10787;53.364;-1.480;2023-03-19T18:42:34;9.30;1.00
21259;DHT22;10787;53.364;-1.480;2023-03-19T18:45:19;9.30;1.00
21259;DHT22;10787;53.364;-1.480;2023-03-19T18:51:03;9.20;1.00
21259;DHT22;10787;53.364;-1.480;2023-03-19T18:53:48;9.30;1.00
21259;DHT22;10787;53.364;-1.480;2023-03-19T18:56:32;9.30;1.00
21259;DHT22;10787;53.364;-1.480;2023-03-19T19:02:32;9.40;1.00
21259;DHT22;10787;53.364;-1.480;2023-03-19T19:05:22;9.40;1.00
21259;DHT22;10787;53.364;-1.480;2023-03-19T19:08:13;9.40;1.00
21259;DHT22;10787;53.364;-1.480;2023-03-19T19:11:00;9.50;1.00
21259;DHT22;10787;53.364;-1.480;2023-03-19T19:13:54;9.50;1.00
21259;DHT22;10787;53.364;-1.480;2023-03-19T19:16:40;9.50;1.00
21259;DHT22;10787;53.364;-1.480;2023-03-19T19:19:25;9.50;1.00
21259;DHT22;10787;53.364;-1.480;2023-03-19T19:22:17;9.50;1.00
21259;DHT22;10787;53.364;-1.480;2023-03-19T19:25:02;9.50;1.00
21259;DHT22;10787;53.364;-1.480;2023-03-19T19:27:49;9.60;1.00
21259;DHT22;10787;53.364;-1.480;2023-03-19T19:30:35;9.60;1.00
21259;DHT22;10787;53.364;-1.480;2023-03-19T19:33:22;9.70;1.00
21259;DHT22;10787;53.364;-1.480;2023-03-19T19:36:08;9.60;1.00
21259;DHT22;10787;53.364;-1.480;2023-03-19T19:38:54;9.60;1.00
21259;DHT22;10787;53.364;-1.480;2023-03-19T19:41:38;9.60;1.00
21259;DHT22;10787;53.364;-1.480;2023-03-19T19:44:23;9.60;1.00
21259;DHT22;10787;53.364;-1.480;2023-03-19T19:47:15;9.50;1.00
21259;DHT22;10787;53.364;-1.480;2023-03-19T19:49:59;9.50;1.00
21259;DHT22;10787;53.364;-1.480;2023-03-19T19:52:44;9.50;1.00
21259;DHT22;10787;53.364;-1.480;2023-03-19T19:55:28;9.50;1.00